Startpagina
METAR-TAF:

METAR-TAF

Vliegvelden :

Rheine, Duitsland

breedte: 52-18N, lengte: 007-23E, hoogte: 40 m

Actueel weer

Dit bericht is 42 minuten geleden gemaakt, om 05:20 UTC
Wind 5 kt uit het zuiden
Temperatuur 12°C
Vochtigheid 94%
Druk 1020 hPa
Zicht: 2500 m
Gebroken wolken op 500 ft
nevel

METAR: ETHE 240520Z 18005KT 2500 BR BKN005 12/11 Q1020 YLO

Tijdstip: 08:02 (06:02 UTC)

Verwachting

Dit bericht is 1 uur en het 35 minuten geleden gemaakt, om 04:27 UTC
Verwachting geldig van 24 om 05 UTC tot 24 om 14 UTC
Wind 8 kt uit het zuiden
Zicht: 2000 m
Gebroken wolken op 300 ft
Geheel bewolkt op 500 ft
lichte motregen
Wijzigt naar
van 24 om 11 UTC tot 24 om 14 UTC
Wind 12 kt uit het zuidzuidwesten met uitschieters tot 22 kt
Zicht: 7000 m
Gebroken wolken op 800 ft
Gebroken wolken op 2000 ft

TAF: ETHE 240427Z 2405/2414 18008KT 2000 -DZ BKN003 OVC005 BECMG 2411/2414 20012G22KT 7000 NSW BKN008 BKN020

Waarnemingen en weersverwachtingen van meer dan 4000 vliegvelden (METAR en TAF).

De beschikbare stations zijn de gele en rode punten op de kaart.

Ga met uw muis naar het station om de naam te zien.

Klik dan om waarnemingen en weersverwachtingen te zien.

kaart wijzigen: klik op de groene knoppen met een zwart kruis om in te zoomen, op de groene knop met een streepje om uit te zoomen of op de groene pijlen voor aangrenzende kaarten.


METAR-TAF: